X  Close Metar Aviation Weather Data     LYNI Nis Airport
Temperature
29°C Temperature
21°C Dewpoint
62% Humidity



Wind
1 M/S
3 MPH
5 KM/H
3 KTS



70°
ENE
Current Conditions

Clear Clear
Pressure 1006.77 (hPa) - 29.73 (inHg)
Visibility 6 (mile) - 9.7 (km)
Airport
Airport-code LYNI

Location: Nis Airport
Distance: 63 (km)

Metar:
LYNI 221930Z 07003KT 020V110 CAVOK 29/21 Q1007 NOSIG

Time: 22-06-2024 21:30 CEST